sensor_id;sensor_type;location;lat;lon;timestamp;pressure;altitude;pressure_sealevel;temperature;humidity
19783;BME280;10051;40.294;-3.754;2024-01-10T00:01:58;94248.13;;;7.23;98.18
19783;BME280;10051;40.294;-3.754;2024-01-10T00:04:24;94284.84;;;7.49;97.50
19783;BME280;10051;40.294;-3.754;2024-01-10T00:06:49;94284.84;;;7.43;97.99
19783;BME280;10051;40.294;-3.754;2024-01-10T00:09:18;94234.22;;;7.17;98.61
19783;BME280;10051;40.294;-3.754;2024-01-10T00:11:43;94269.84;;;7.28;99.28
19783;BME280;10051;40.294;-3.754;2024-01-10T00:14:11;94253.72;;;6.94;99.84
19783;BME280;10051;40.294;-3.754;2024-01-10T00:16:37;94260.56;;;7.00;100.00
19783;BME280;10051;40.294;-3.754;2024-01-10T00:19:02;94168.25;;;6.46;100.00
19783;BME280;10051;40.294;-3.754;2024-01-10T00:21:29;94282.13;;;7.23;100.00
19783;BME280;10051;40.294;-3.754;2024-01-10T00:23:54;94274.00;;;7.19;100.00
19783;BME280;10051;40.294;-3.754;2024-01-10T00:26:20;94269.56;;;7.20;100.00
19783;BME280;10051;40.294;-3.754;2024-01-10T00:28:45;94244.28;;;6.88;100.00
19783;BME280;10051;40.294;-3.754;2024-01-10T00:31:14;94241.66;;;6.88;100.00
19783;BME280;10051;40.294;-3.754;2024-01-10T00:33:40;94241.44;;;6.94;100.00
19783;BME280;10051;40.294;-3.754;2024-01-10T00:36:06;94175.34;;;6.51;100.00
19783;BME280;10051;40.294;-3.754;2024-01-10T00:38:32;94191.09;;;6.61;100.00
19783;BME280;10051;40.294;-3.754;2024-01-10T00:40:58;94263.47;;;7.09;100.00
19783;BME280;10051;40.294;-3.754;2024-01-10T00:43:24;94246.19;;;6.97;100.00
19783;BME280;10051;40.294;-3.754;2024-01-10T00:45:49;94257.97;;;7.05;100.00
19783;BME280;10051;40.294;-3.754;2024-01-10T00:48:15;94217.00;;;6.68;100.00
19783;BME280;10051;40.294;-3.754;2024-01-10T00:50:42;94259.50;;;7.01;100.00
19783;BME280;10051;40.294;-3.754;2024-01-10T00:53:09;94141.66;;;6.12;100.00
19783;BME280;10051;40.294;-3.754;2024-01-10T00:55:37;94253.19;;;6.92;100.00
19783;BME280;10051;40.294;-3.754;2024-01-10T00:58:03;94227.44;;;6.68;100.00
19783;BME280;10051;40.294;-3.754;2024-01-10T01:00:29;94238.47;;;6.75;100.00
19783;BME280;10051;40.294;-3.754;2024-01-10T01:02:54;94264.34;;;6.77;100.00
19783;BME280;10051;40.294;-3.754;2024-01-10T01:05:20;94257.25;;;6.72;100.00
19783;BME280;10051;40.294;-3.754;2024-01-10T01:07:45;94273.59;;;6.95;100.00
19783;BME280;10051;40.294;-3.754;2024-01-10T01:10:11;94264.66;;;6.85;100.00
19783;BME280;10051;40.294;-3.754;2024-01-10T01:12:37;94211.88;;;6.46;100.00
19783;BME280;10051;40.294;-3.754;2024-01-10T01:15:03;94269.53;;;6.72;100.00
19783;BME280;10051;40.294;-3.754;2024-01-10T01:17:29;94230.47;;;6.54;100.00
19783;BME280;10051;40.294;-3.754;2024-01-10T01:19:54;94232.59;;;6.58;100.00
19783;BME280;10051;40.294;-3.754;2024-01-10T01:22:20;94269.28;;;6.73;100.00
19783;BME280;10051;40.294;-3.754;2024-01-10T01:24:45;94256.16;;;6.63;100.00
19783;BME280;10051;40.294;-3.754;2024-01-10T01:27:11;94238.31;;;6.54;100.00
19783;BME280;10051;40.294;-3.754;2024-01-10T01:29:36;94235.47;;;6.56;100.00
19783;BME280;10051;40.294;-3.754;2024-01-10T01:32:02;94225.25;;;6.54;100.00
19783;BME280;10051;40.294;-3.754;2024-01-10T01:34:27;94227.94;;;6.65;100.00
19783;BME280;10051;40.294;-3.754;2024-01-10T01:36:53;94219.34;;;6.69;100.00
19783;BME280;10051;40.294;-3.754;2024-01-10T01:39:19;94248.19;;;6.85;100.00
19783;BME280;10051;40.294;-3.754;2024-01-10T01:41:44;94242.69;;;6.87;100.00
19783;BME280;10051;40.294;-3.754;2024-01-10T01:44:10;94167.13;;;6.32;100.00
19783;BME280;10051;40.294;-3.754;2024-01-10T01:46:36;94238.50;;;6.80;100.00
19783;BME280;10051;40.294;-3.754;2024-01-10T01:49:02;94230.59;;;6.70;100.00
19783;BME280;10051;40.294;-3.754;2024-01-10T01:51:29;94237.66;;;6.75;100.00
19783;BME280;10051;40.294;-3.754;2024-01-10T01:53:56;94039.66;;;5.48;100.00
19783;BME280;10051;40.294;-3.754;2024-01-10T01:56:22;94220.69;;;6.72;100.00
19783;BME280;10051;40.294;-3.754;2024-01-10T01:58:50;94111.44;;;5.88;100.00
19783;BME280;10051;40.294;-3.754;2024-01-10T02:01:16;94136.09;;;6.03;100.00
19783;BME280;10051;40.294;-3.754;2024-01-10T02:03:43;94166.28;;;6.26;100.00
19783;BME280;10051;40.294;-3.754;2024-01-10T02:06:09;94211.03;;;6.35;100.00
19783;BME280;10051;40.294;-3.754;2024-01-10T02:08:35;94207.84;;;6.28;100.00
19783;BME280;10051;40.294;-3.754;2024-01-10T02:11:01;94193.16;;;6.21;100.00
19783;BME280;10051;40.294;-3.754;2024-01-10T02:13:28;94145.97;;;5.95;100.00
19783;BME280;10051;40.294;-3.754;2024-01-10T02:15:54;94248.63;;;6.72;100.00
19783;BME280;10051;40.294;-3.754;2024-01-10T02:18:20;94247.31;;;6.69;100.00
19783;BME280;10051;40.294;-3.754;2024-01-10T02:20:46;94241.81;;;6.70;100.00
19783;BME280;10051;40.294;-3.754;2024-01-10T02:23:12;94247.31;;;6.69;100.00
19783;BME280;10051;40.294;-3.754;2024-01-10T02:25:39;94152.56;;;6.03;100.00
19783;BME280;10051;40.294;-3.754;2024-01-10T02:28:05;94208.91;;;6.32;100.00
19783;BME280;10051;40.294;-3.754;2024-01-10T02:30:31;94211.88;;;6.46;100.00
19783;BME280;10051;40.294;-3.754;2024-01-10T02:32:56;94192.88;;;6.18;100.00
19783;BME280;10051;40.294;-3.754;2024-01-10T02:35:22;94269.16;;;6.58;100.00
19783;BME280;10051;40.294;-3.754;2024-01-10T02:37:47;94208.81;;;6.21;100.00
19783;BME280;10051;40.294;-3.754;2024-01-10T02:40:16;94212.34;;;6.37;100.00
19783;BME280;10051;40.294;-3.754;2024-01-10T02:42:42;94240.75;;;6.66;100.00
19783;BME280;10051;40.294;-3.754;2024-01-10T02:45:08;94224.72;;;6.52;100.00
19783;BME280;10051;40.294;-3.754;2024-01-10T02:47:33;94179.66;;;6.30;100.00
19783;BME280;10051;40.294;-3.754;2024-01-10T02:50:00;94215.03;;;6.48;100.00
19783;BME280;10051;40.294;-3.754;2024-01-10T02:52:25;94178.59;;;6.31;100.00
19783;BME280;10051;40.294;-3.754;2024-01-10T02:54:51;94217.94;;;6.57;100.00
19783;BME280;10051;40.294;-3.754;2024-01-10T02:57:16;94220.59;;;6.62;100.00
19783;BME280;10051;40.294;-3.754;2024-01-10T02:59:42;94154.75;;;6.22;100.00
19783;BME280;10051;40.294;-3.754;2024-01-10T03:02:07;94235.56;;;6.72;100.00
19783;BME280;10051;40.294;-3.754;2024-01-10T03:04:33;94211.91;;;6.51;100.00
19783;BME280;10051;40.294;-3.754;2024-01-10T03:06:59;94185.38;;;6.27;100.00
19783;BME280;10051;40.294;-3.754;2024-01-10T03:09:24;94189.56;;;6.28;100.00
19783;BME280;10051;40.294;-3.754;2024-01-10T03:11:50;94175.41;;;6.23;100.00
19783;BME280;10051;40.294;-3.754;2024-01-10T03:14:16;94133.91;;;5.89;100.00
19783;BME280;10051;40.294;-3.754;2024-01-10T03:16:41;94193.78;;;6.34;100.00
19783;BME280;10051;40.294;-3.754;2024-01-10T03:19:07;94209.03;;;6.52;100.00
19783;BME280;10051;40.294;-3.754;2024-01-10T03:21:32;94201.63;;;6.34;100.00
19783;BME280;10051;40.294;-3.754;2024-01-10T03:23:59;94184.00;;;6.19;100.00
19783;BME280;10051;40.294;-3.754;2024-01-10T03:26:26;94192.16;;;6.28;100.00
19783;BME280;10051;40.294;-3.754;2024-01-10T03:28:51;94189.78;;;6.26;100.00
19783;BME280;10051;40.294;-3.754;2024-01-10T03:31:17;94230.47;;;6.54;100.00
19783;BME280;10051;40.294;-3.754;2024-01-10T03:33:43;94149.06;;;5.92;100.00
19783;BME280;10051;40.294;-3.754;2024-01-10T03:36:11;94129.66;;;5.83;100.00
19783;BME280;10051;40.294;-3.754;2024-01-10T03:38:37;94249.13;;;6.68;100.00
19783;BME280;10051;40.294;-3.754;2024-01-10T03:41:03;94210.34;;;6.50;100.00
19783;BME280;10051;40.294;-3.754;2024-01-10T03:43:29;94246.53;;;6.74;100.00
19783;BME280;10051;40.294;-3.754;2024-01-10T03:45:54;94245.19;;;6.66;100.00
19783;BME280;10051;40.294;-3.754;2024-01-10T03:48:20;94221.56;;;6.50;100.00
19783;BME280;10051;40.294;-3.754;2024-01-10T03:50:45;94249.41;;;6.72;100.00
19783;BME280;10051;40.294;-3.754;2024-01-10T03:53:11;94203.03;;;6.52;100.00
19783;BME280;10051;40.294;-3.754;2024-01-10T03:55:37;94205.94;;;6.55;100.00
19783;BME280;10051;40.294;-3.754;2024-01-10T03:58:04;94247.91;;;6.87;100.00
19783;BME280;10051;40.294;-3.754;2024-01-10T04:00:30;94232.69;;;6.73;100.00
19783;BME280;10051;40.294;-3.754;2024-01-10T04:02:55;94244.25;;;6.82;100.00
19783;BME280;10051;40.294;-3.754;2024-01-10T04:05:21;94222.47;;;6.72;100.00
19783;BME280;10051;40.294;-3.754;2024-01-10T04:07:47;94192.63;;;6.57;100.00
19783;BME280;10051;40.294;-3.754;2024-01-10T04:10:13;94241.66;;;6.88;100.00
19783;BME280;10051;40.294;-3.754;2024-01-10T04:12:43;94233.28;;;6.80;100.00
19783;BME280;10051;40.294;-3.754;2024-01-10T04:15:09;94257.38;;;6.93;100.00
19783;BME280;10051;40.294;-3.754;2024-01-10T04:17:34;94265.22;;;6.93;100.00
19783;BME280;10051;40.294;-3.754;2024-01-10T04:20:01;94246.63;;;6.84;100.00
19783;BME280;10051;40.294;-3.754;2024-01-10T04:22:26;94266.31;;;7.02;100.00
19783;BME280;10051;40.294;-3.754;2024-01-10T04:24:52;94170.13;;;6.51;100.00
19783;BME280;10051;40.294;-3.754;2024-01-10T04:27:18;94246.19;;;6.97;100.00
19783;BME280;10051;40.294;-3.754;2024-01-10T04:29:44;94215.97;;;6.74;100.00
19783;BME280;10051;40.294;-3.754;2024-01-10T04:32:09;94223.63;;;6.86;100.00
19783;BME280;10051;40.294;-3.754;2024-01-10T04:34:35;94251.13;;;6.99;100.00
19783;BME280;10051;40.294;-3.754;2024-01-10T04:37:01;94219.13;;;6.76;100.00
19783;BME280;10051;40.294;-3.754;2024-01-10T04:39:26;94230.16;;;6.89;100.00
19783;BME280;10051;40.294;-3.754;2024-01-10T04:41:52;94232.50;;;6.85;100.00
19783;BME280;10051;40.294;-3.754;2024-01-10T04:44:18;94250.13;;;7.05;100.00
19783;BME280;10051;40.294;-3.754;2024-01-10T04:46:43;94253.53;;;7.06;100.00
19783;BME280;10051;40.294;-3.754;2024-01-10T04:49:09;94188.78;;;6.70;100.00
19783;BME280;10051;40.294;-3.754;2024-01-10T04:51:35;94255.66;;;7.14;100.00
19783;BME280;10051;40.294;-3.754;2024-01-10T04:54:01;94247.00;;;7.08;100.00
19783;BME280;10051;40.294;-3.754;2024-01-10T04:56:26;94220.22;;;6.85;100.00
19783;BME280;10051;40.294;-3.754;2024-01-10T04:58:52;94233.59;;;6.94;100.00
19783;BME280;10051;40.294;-3.754;2024-01-10T05:01:18;94210.78;;;6.84;100.00
19783;BME280;10051;40.294;-3.754;2024-01-10T05:03:44;94203.44;;;6.76;100.00
19783;BME280;10051;40.294;-3.754;2024-01-10T05:06:09;94212.34;;;6.75;100.00
19783;BME280;10051;40.294;-3.754;2024-01-10T05:08:35;94210.25;;;6.77;100.00
19783;BME280;10051;40.294;-3.754;2024-01-10T05:11:01;94192.66;;;6.62;100.00
19783;BME280;10051;40.294;-3.754;2024-01-10T05:13:27;94245.34;;;6.92;100.00
19783;BME280;10051;40.294;-3.754;2024-01-10T05:15:52;94259.56;;;7.06;100.00
19783;BME280;10051;40.294;-3.754;2024-01-10T05:18:18;94213.09;;;6.76;100.00
19783;BME280;10051;40.294;-3.754;2024-01-10T05:20:44;94251.44;;;7.03;100.00
19783;BME280;10051;40.294;-3.754;2024-01-10T05:23:10;94256.16;;;7.06;100.00
19783;BME280;10051;40.294;-3.754;2024-01-10T05:25:38;94276.56;;;7.14;100.00
19783;BME280;10051;40.294;-3.754;2024-01-10T05:28:04;94233.28;;;6.80;100.00
19783;BME280;10051;40.294;-3.754;2024-01-10T05:30:29;94172.97;;;6.49;100.00
19783;BME280;10051;40.294;-3.754;2024-01-10T05:32:55;94229.06;;;6.74;100.00
19783;BME280;10051;40.294;-3.754;2024-01-10T05:35:21;94269.38;;;6.83;100.00
19783;BME280;10051;40.294;-3.754;2024-01-10T05:37:46;94275.66;;;6.93;100.00
19783;BME280;10051;40.294;-3.754;2024-01-10T05:40:12;94242.31;;;6.67;100.00
19783;BME280;10051;40.294;-3.754;2024-01-10T05:42:38;94214.75;;;6.49;100.00
19783;BME280;10051;40.294;-3.754;2024-01-10T05:45:04;94244.19;;;6.72;100.00
19783;BME280;10051;40.294;-3.754;2024-01-10T05:47:31;94266.63;;;7.06;100.00
19783;BME280;10051;40.294;-3.754;2024-01-10T05:49:57;94233.25;;;6.75;100.00
19783;BME280;10051;40.294;-3.754;2024-01-10T05:52:22;94231.00;;;6.57;100.00
19783;BME280;10051;40.294;-3.754;2024-01-10T05:54:48;94230.22;;;6.51;100.00
19783;BME280;10051;40.294;-3.754;2024-01-10T05:57:14;94231.50;;;6.53;100.00
19783;BME280;10051;40.294;-3.754;2024-01-10T05:59:41;94282.66;;;6.82;100.00
19783;BME280;10051;40.294;-3.754;2024-01-10T06:02:06;94223.31;;;6.39;100.00
19783;BME280;10051;40.294;-3.754;2024-01-10T06:04:32;94217.81;;;6.36;100.00
19783;BME280;10051;40.294;-3.754;2024-01-10T06:07:01;94231.88;;;6.30;100.00
19783;BME280;10051;40.294;-3.754;2024-01-10T06:09:27;94242.59;;;6.33;100.00
19783;BME280;10051;40.294;-3.754;2024-01-10T06:11:52;94289.31;;;6.57;100.00
19783;BME280;10051;40.294;-3.754;2024-01-10T06:14:18;94257.22;;;6.34;100.00
19783;BME280;10051;40.294;-3.754;2024-01-10T06:16:44;94315.97;;;6.64;100.00
19783;BME280;10051;40.294;-3.754;2024-01-10T06:19:11;94264.56;;;6.37;100.00
19783;BME280;10051;40.294;-3.754;2024-01-10T06:21:37;94179.31;;;5.88;100.00
19783;BME280;10051;40.294;-3.754;2024-01-10T06:24:03;94294.31;;;6.64;100.00
19783;BME280;10051;40.294;-3.754;2024-01-10T06:26:29;94294.81;;;6.61;100.00
19783;BME280;10051;40.294;-3.754;2024-01-10T06:28:55;94282.00;;;6.59;100.00
19783;BME280;10051;40.294;-3.754;2024-01-10T06:31:20;94226.34;;;6.26;100.00
19783;BME280;10051;40.294;-3.754;2024-01-10T06:33:46;94254.72;;;6.45;100.00
19783;BME280;10051;40.294;-3.754;2024-01-10T06:36:12;94205.81;;;6.02;100.00
19783;BME280;10051;40.294;-3.754;2024-01-10T06:38:41;94287.50;;;6.63;100.00
19783;BME280;10051;40.294;-3.754;2024-01-10T06:41:10;94243.41;;;6.34;100.00
19783;BME280;10051;40.294;-3.754;2024-01-10T06:43:36;94259.44;;;6.48;100.00
19783;BME280;10051;40.294;-3.754;2024-01-10T06:46:02;94172.50;;;5.87;100.00
19783;BME280;10051;40.294;-3.754;2024-01-10T06:48:28;94230.25;;;6.23;100.00
19783;BME280;10051;40.294;-3.754;2024-01-10T06:50:55;94218.69;;;6.14;100.00
19783;BME280;10051;40.294;-3.754;2024-01-10T06:53:21;94203.38;;;5.95;100.00
19783;BME280;10051;40.294;-3.754;2024-01-10T06:55:47;94267.34;;;6.25;100.00
19783;BME280;10051;40.294;-3.754;2024-01-10T06:58:12;94217.00;;;5.75;100.00
19783;BME280;10051;40.294;-3.754;2024-01-10T07:00:38;94262.00;;;5.88;100.00
19783;BME280;10051;40.294;-3.754;2024-01-10T07:03:04;94296.41;;;6.07;100.00
19783;BME280;10051;40.294;-3.754;2024-01-10T07:05:30;94286.53;;;5.87;100.00
19783;BME280;10051;40.294;-3.754;2024-01-10T07:07:59;94293.16;;;5.94;100.00
19783;BME280;10051;40.294;-3.754;2024-01-10T07:10:25;94259.06;;;5.79;100.00
19783;BME280;10051;40.294;-3.754;2024-01-10T07:12:53;94244.38;;;5.73;100.00
19783;BME280;10051;40.294;-3.754;2024-01-10T07:15:19;94245.69;;;5.75;100.00
19783;BME280;10051;40.294;-3.754;2024-01-10T07:17:45;94253.34;;;5.82;100.00
19783;BME280;10051;40.294;-3.754;2024-01-10T07:20:11;94288.53;;;6.02;100.00
19783;BME280;10051;40.294;-3.754;2024-01-10T07:22:37;94252.16;;;5.68;100.00
19783;BME280;10051;40.294;-3.754;2024-01-10T07:25:07;94262.59;;;5.68;100.00
19783;BME280;10051;40.294;-3.754;2024-01-10T07:27:33;94286.72;;;5.80;100.00
19783;BME280;10051;40.294;-3.754;2024-01-10T07:30:00;94271.56;;;5.77;100.00
19783;BME280;10051;40.294;-3.754;2024-01-10T07:32:25;94295.22;;;5.92;100.00
19783;BME280;10051;40.294;-3.754;2024-01-10T07:34:51;94327.69;;;6.29;100.00
19783;BME280;10051;40.294;-3.754;2024-01-10T07:37:16;94273.69;;;5.80;100.00
19783;BME280;10051;40.294;-3.754;2024-01-10T07:39:46;94317.34;;;6.12;100.00
19783;BME280;10051;40.294;-3.754;2024-01-10T07:42:12;94328.56;;;6.35;100.00
19783;BME280;10051;40.294;-3.754;2024-01-10T07:44:37;94265.16;;;5.90;100.00
19783;BME280;10051;40.294;-3.754;2024-01-10T07:47:03;94292.97;;;6.01;100.00
19783;BME280;10051;40.294;-3.754;2024-01-10T07:49:28;94283.38;;;6.07;100.00
19783;BME280;10051;40.294;-3.754;2024-01-10T07:51:55;94334.06;;;6.38;100.00
19783;BME280;10051;40.294;-3.754;2024-01-10T07:54:21;94336.41;;;6.35;100.00
19783;BME280;10051;40.294;-3.754;2024-01-10T07:56:48;94345.00;;;6.35;100.00
19783;BME280;10051;40.294;-3.754;2024-01-10T07:59:13;94276.84;;;5.82;100.00
19783;BME280;10051;40.294;-3.754;2024-01-10T08:01:44;94354.47;;;6.42;100.00
19783;BME280;10051;40.294;-3.754;2024-01-10T08:04:20;94286.84;;;5.90;100.00
19783;BME280;10051;40.294;-3.754;2024-01-10T08:06:46;94343.81;;;6.21;100.00
19783;BME280;10051;40.294;-3.754;2024-01-10T08:09:11;94263.56;;;5.61;100.00
19783;BME280;10051;40.294;-3.754;2024-01-10T08:11:38;94295.22;;;5.92;100.00
19783;BME280;10051;40.294;-3.754;2024-01-10T08:14:03;94314.63;;;6.02;100.00
19783;BME280;10051;40.294;-3.754;2024-01-10T08:16:29;94335.75;;;6.22;100.00
19783;BME280;10051;40.294;-3.754;2024-01-10T08:18:54;94327.81;;;6.12;100.00
19783;BME280;10051;40.294;-3.754;2024-01-10T08:21:20;94352.94;;;6.18;100.00
19783;BME280;10051;40.294;-3.754;2024-01-10T08:23:45;94281.41;;;5.70;100.00
19783;BME280;10051;40.294;-3.754;2024-01-10T08:26:11;94335.59;;;6.07;100.00
19783;BME280;10051;40.294;-3.754;2024-01-10T08:28:36;94290.50;;;5.89;100.00
19783;BME280;10051;40.294;-3.754;2024-01-10T08:31:06;94301.75;;;5.95;100.00
19783;BME280;10051;40.294;-3.754;2024-01-10T08:33:32;94289.34;;;5.80;100.00
19783;BME280;10051;40.294;-3.754;2024-01-10T08:35:58;94275.06;;;5.88;100.00
19783;BME280;10051;40.294;-3.754;2024-01-10T08:38:24;94342.94;;;6.10;100.00
19783;BME280;10051;40.294;-3.754;2024-01-10T08:40:49;94268.78;;;5.61;100.00
19783;BME280;10051;40.294;-3.754;2024-01-10T08:43:17;94272.41;;;5.60;100.00
19783;BME280;10051;40.294;-3.754;2024-01-10T08:45:44;94274.59;;;5.69;100.00
19783;BME280;10051;40.294;-3.754;2024-01-10T08:48:09;94296.31;;;5.74;100.00
19783;BME280;10051;40.294;-3.754;2024-01-10T08:50:37;94305.72;;;5.75;100.00
19783;BME280;10051;40.294;-3.754;2024-01-10T08:53:03;94304.34;;;5.68;100.00
19783;BME280;10051;40.294;-3.754;2024-01-10T08:55:31;94343.47;;;5.90;100.00
19783;BME280;10051;40.294;-3.754;2024-01-10T08:57:57;94295.66;;;5.62;100.00
19783;BME280;10051;40.294;-3.754;2024-01-10T09:00:23;94341.16;;;5.93;100.00
19783;BME280;10051;40.294;-3.754;2024-01-10T09:02:50;94345.34;;;5.94;100.00
19783;BME280;10051;40.294;-3.754;2024-01-10T09:05:16;94346.78;;;6.02;100.00
19783;BME280;10051;40.294;-3.754;2024-01-10T09:07:41;94365.88;;;6.08;100.00
19783;BME280;10051;40.294;-3.754;2024-01-10T09:10:08;94382.75;;;6.22;100.00
19783;BME280;10051;40.294;-3.754;2024-01-10T09:12:34;94352.94;;;5.96;100.00
19783;BME280;10051;40.294;-3.754;2024-01-10T09:15:00;94323.88;;;5.87;100.00
19783;BME280;10051;40.294;-3.754;2024-01-10T09:17:29;94384.31;;;6.23;100.00
19783;BME280;10051;40.294;-3.754;2024-01-10T09:19:55;94340.44;;;5.98;100.00
19783;BME280;10051;40.294;-3.754;2024-01-10T09:22:20;94368.59;;;6.18;100.00
19783;BME280;10051;40.294;-3.754;2024-01-10T09:24:46;94343.78;;;6.16;100.00
19783;BME280;10051;40.294;-3.754;2024-01-10T09:27:11;94383.25;;;6.47;100.00
19783;BME280;10051;40.294;-3.754;2024-01-10T09:29:37;94369.06;;;6.37;100.00
19783;BME280;10051;40.294;-3.754;2024-01-10T09:32:03;94336.84;;;6.27;100.00
19783;BME280;10051;40.294;-3.754;2024-01-10T09:34:29;94357.72;;;6.27;100.00
19783;BME280;10051;40.294;-3.754;2024-01-10T09:36:55;94359.19;;;6.17;100.00
19783;BME280;10051;40.294;-3.754;2024-01-10T09:39:20;94412.44;;;6.66;100.00
19783;BME280;10051;40.294;-3.754;2024-01-10T09:41:47;94406.41;;;6.65;100.00
19783;BME280;10051;40.294;-3.754;2024-01-10T09:44:14;94302.19;;;5.87;100.00
19783;BME280;10051;40.294;-3.754;2024-01-10T09:46:43;94381.34;;;6.37;100.00
19783;BME280;10051;40.294;-3.754;2024-01-10T09:49:11;94367.69;;;6.30;100.00
19783;BME280;10051;40.294;-3.754;2024-01-10T09:51:36;94348.38;;;6.31;100.00
19783;BME280;10051;40.294;-3.754;2024-01-10T09:54:03;94366.22;;;6.44;100.00
19783;BME280;10051;40.294;-3.754;2024-01-10T09:56:31;94349.34;;;6.24;100.00
19783;BME280;10051;40.294;-3.754;2024-01-10T09:58:58;94402.69;;;6.56;100.00
19783;BME280;10051;40.294;-3.754;2024-01-10T10:01:26;94383.03;;;6.53;100.00
19783;BME280;10051;40.294;-3.754;2024-01-10T10:03:53;94397.84;;;6.70;100.00
19783;BME280;10051;40.294;-3.754;2024-01-10T10:06:21;94347.94;;;6.44;100.00
19783;BME280;10051;40.294;-3.754;2024-01-10T10:08:47;94404.44;;;6.78;100.00
19783;BME280;10051;40.294;-3.754;2024-01-10T10:11:16;94391.31;;;6.73;100.00
19783;BME280;10051;40.294;-3.754;2024-01-10T10:13:42;94438.53;;;7.21;100.00
19783;BME280;10051;40.294;-3.754;2024-01-10T10:16:08;94371.88;;;6.63;100.00
19783;BME280;10051;40.294;-3.754;2024-01-10T10:18:39;94432.72;;;7.13;100.00
19783;BME280;10051;40.294;-3.754;2024-01-10T10:21:13;94436.88;;;7.09;100.00
19783;BME280;10051;40.294;-3.754;2024-01-10T10:23:56;94420.41;;;7.14;100.00
19783;BME280;10051;40.294;-3.754;2024-01-10T10:26:22;94388.66;;;7.00;100.00
19783;BME280;10051;40.294;-3.754;2024-01-10T10:28:50;94420.03;;;7.33;100.00
19783;BME280;10051;40.294;-3.754;2024-01-10T10:31:17;94417.69;;;7.36;100.00
19783;BME280;10051;40.294;-3.754;2024-01-10T10:33:43;94392.72;;;7.18;100.00
19783;BME280;10051;40.294;-3.754;2024-01-10T10:36:09;94360.94;;;6.99;100.00
19783;BME280;10051;40.294;-3.754;2024-01-10T10:38:35;94377.75;;;7.08;100.00
19783;BME280;10051;40.294;-3.754;2024-01-10T10:41:07;94415.63;;;7.38;100.00
19783;BME280;10051;40.294;-3.754;2024-01-10T10:43:36;94322.97;;;6.86;100.00
19783;BME280;10051;40.294;-3.754;2024-01-10T10:46:07;94411.50;;;7.48;100.00
19783;BME280;10051;40.294;-3.754;2024-01-10T10:48:34;94402.50;;;7.28;100.00
19783;BME280;10051;40.294;-3.754;2024-01-10T10:51:09;94342.16;;;7.02;100.00
19783;BME280;10051;40.294;-3.754;2024-01-10T10:53:37;94405.19;;;7.43;100.00
19783;BME280;10051;40.294;-3.754;2024-01-10T10:56:05;94389.78;;;7.47;100.00
19783;BME280;10051;40.294;-3.754;2024-01-10T10:58:36;94401.03;;;7.48;100.00
19783;BME280;10051;40.294;-3.754;2024-01-10T11:01:07;94388.97;;;7.47;100.00
19783;BME280;10051;40.294;-3.754;2024-01-10T11:03:37;94396.22;;;7.34;100.00
19783;BME280;10051;40.294;-3.754;2024-01-10T11:06:04;94398.13;;;7.44;100.00
19783;BME280;10051;40.294;-3.754;2024-01-10T11:08:45;94356.38;;;7.17;100.00
19783;BME280;10051;40.294;-3.754;2024-01-10T11:14:27;94392.69;;;7.51;100.00
19783;BME280;10051;40.294;-3.754;2024-01-10T11:17:20;94384.81;;;7.51;100.00
19783;BME280;10051;40.294;-3.754;2024-01-10T11:20:05;94399.03;;;7.65;100.00
19783;BME280;10051;40.294;-3.754;2024-01-10T11:25:53;94361.47;;;7.39;100.00
19783;BME280;10051;40.294;-3.754;2024-01-10T11:28:18;94345.44;;;7.25;100.00
19783;BME280;10051;40.294;-3.754;2024-01-10T11:30:49;94358.53;;;7.30;100.00
19783;BME280;10051;40.294;-3.754;2024-01-10T11:33:33;94370.63;;;7.41;100.00
19783;BME280;10051;40.294;-3.754;2024-01-10T11:36:16;94386.19;;;7.64;100.00
19783;BME280;10051;40.294;-3.754;2024-01-10T11:41:26;94367.75;;;7.91;100.00
19783;BME280;10051;40.294;-3.754;2024-01-10T11:46:48;94381.41;;;8.03;100.00
19783;BME280;10051;40.294;-3.754;2024-01-10T11:49:17;94377.78;;;8.10;100.00
19783;BME280;10051;40.294;-3.754;2024-01-10T11:51:52;94357.56;;;7.95;100.00
19783;BME280;10051;40.294;-3.754;2024-01-10T11:54:40;94371.44;;;8.00;100.00
19783;BME280;10051;40.294;-3.754;2024-01-10T11:57:25;94375.66;;;8.07;100.00
19783;BME280;10051;40.294;-3.754;2024-01-10T11:59:54;94381.44;;;8.09;100.00
19783;BME280;10051;40.294;-3.754;2024-01-10T12:02:21;94367.25;;;7.99;100.00
19783;BME280;10051;40.294;-3.754;2024-01-10T12:04:47;94359.94;;;8.01;100.00
19783;BME280;10051;40.294;-3.754;2024-01-10T12:07:14;94359.44;;;8.10;100.00
19783;BME280;10051;40.294;-3.754;2024-01-10T12:09:40;94339.50;;;7.98;100.00
19783;BME280;10051;40.294;-3.754;2024-01-10T12:12:07;94329.78;;;7.99;100.00
19783;BME280;10051;40.294;-3.754;2024-01-10T12:14:34;94291.25;;;7.79;100.00
19783;BME280;10051;40.294;-3.754;2024-01-10T12:17:00;94344.25;;;8.12;100.00
19783;BME280;10051;40.294;-3.754;2024-01-10T12:19:27;94313.84;;;8.00;100.00
19783;BME280;10051;40.294;-3.754;2024-01-10T12:21:52;94294.97;;;7.93;100.00
19783;BME280;10051;40.294;-3.754;2024-01-10T12:24:19;94338.25;;;8.27;100.00
19783;BME280;10051;40.294;-3.754;2024-01-10T12:26:47;94315.97;;;8.14;100.00
19783;BME280;10051;40.294;-3.754;2024-01-10T12:29:13;94326.19;;;8.15;100.00
19783;BME280;10051;40.294;-3.754;2024-01-10T12:31:42;94320.16;;;8.15;100.00
19783;BME280;10051;40.294;-3.754;2024-01-10T12:34:11;94314.91;;;8.20;100.00
19783;BME280;10051;40.294;-3.754;2024-01-10T12:36:36;94269.81;;;7.92;100.00
19783;BME280;10051;40.294;-3.754;2024-01-10T12:39:03;94274.56;;;8.06;100.00
19783;BME280;10051;40.294;-3.754;2024-01-10T12:41:29;94297.63;;;8.24;100.00
19783;BME280;10051;40.294;-3.754;2024-01-10T12:43:55;94315.72;;;8.46;100.00
19783;BME280;10051;40.294;-3.754;2024-01-10T12:46:22;94311.06;;;8.54;100.00
19783;BME280;10051;40.294;-3.754;2024-01-10T12:49:04;94303.72;;;8.61;100.00
19783;BME280;10051;40.294;-3.754;2024-01-10T12:51:34;94274.06;;;8.40;100.00
19783;BME280;10051;40.294;-3.754;2024-01-10T12:54:02;94289.84;;;8.55;100.00
19783;BME280;10051;40.294;-3.754;2024-01-10T12:56:29;94300.31;;;8.71;100.00
19783;BME280;10051;40.294;-3.754;2024-01-10T12:58:56;94291.66;;;8.86;100.00
19783;BME280;10051;40.294;-3.754;2024-01-10T13:01:23;94276.72;;;8.86;100.00